ADDS METAR Data INFO
IDs: Format: Raw Decoded Include TAF

Data at: 0729 UTC 21 Jul 2018

RJNT 210700Z 02006KT 350V060 9999 FEW040 BKN/// 34/23 Q1009
RJNT 210600Z 02006KT 350V060 9999 FEW040 BKN/// 34/23 Q1009
RJNT 210500Z 02009KT 340V040 9999 FEW040 SCT/// 35/24 Q1010
RJNT 210400Z 36007KT 320V040 9999 FEW040 BKN/// 35/23 Q1010
RJNT 210300Z 34008KT 310V020 9999 FEW040 BKN/// 35/23 Q1010
RJNT 210200Z 29003KT 200V360 9999 FEW040 BKN/// 35/22 Q1011
RJNT 210146Z VRB03KT 9999 FEW030 BKN/// 35/23 Q1011 RMK 1CU030 A2986
RJNT 210100Z 31005KT 270V350 9999 FEW030 BKN/// 33/23 Q1011
RJNT 210000Z VRB03KT 9999 FEW030 BKN/// 34/24 Q1011
RJNT 202300Z 21004KT 160V240 9999 FEW050 BKN/// 32/23 Q1011
RJNT 202200Z 18005KT 140V210 9999 FEW050 BKN/// 29/22 Q1011
RJNT 202110Z 19008KT 9999 FEW050 SCT150 BKN/// 29/22 Q1011 RMK 1SC050 3AC150 A2985
RJNT 201200Z VRB02KT 8000 FEW030 30/25 Q1011
RJNT 201100Z 34002KT 8000 FEW030 SCT/// 30/24 Q1010
RJNT 201000Z 36006KT 8000 SCT035 31/24 Q1010
RJNT 200900Z 36006KT 8000 FEW040 33/24 Q1009
RJNT 200800Z 01006KT 8000 FEW040 34/24 Q1009